createdAt,value
2017-07-09T00:00:06.778Z,18.48
2017-07-09T00:02:35.665Z,17.73
2017-07-09T00:05:04.568Z,18.30
2017-07-09T00:07:33.438Z,17.80
2017-07-09T00:10:02.368Z,18.08
2017-07-09T00:12:31.257Z,17.90
2017-07-09T00:15:00.149Z,18.35
2017-07-09T00:17:29.037Z,18.85
2017-07-09T00:19:57.903Z,17.80
2017-07-09T00:22:26.801Z,18.17
2017-07-09T00:24:55.684Z,17.85
2017-07-09T00:27:24.542Z,16.40
2017-07-09T00:29:53.443Z,16.60
2017-07-09T00:32:22.345Z,14.70
2017-07-09T00:34:51.241Z,16.52
2017-07-09T00:37:20.129Z,16.20
2017-07-09T00:39:49.013Z,16.35
2017-07-09T00:42:17.905Z,17.37
2017-07-09T00:44:46.809Z,16.80
2017-07-09T00:47:15.698Z,17.65
2017-07-09T00:49:44.583Z,17.50
2017-07-09T00:52:13.544Z,17.52
2017-07-09T00:54:43.428Z,16.30
2017-07-09T00:57:12.329Z,17.65
2017-07-09T00:59:41.220Z,18.30
2017-07-09T01:02:10.773Z,18.17
2017-07-09T01:04:39.661Z,18.50
2017-07-09T01:07:09.335Z,17.75
2017-07-09T01:09:38.234Z,18.60
2017-07-09T01:12:07.124Z,16.98
2017-07-09T01:14:36.026Z,16.50
2017-07-09T01:17:04.923Z,16.20
2017-07-09T01:19:34.582Z,18.12
2017-07-09T01:22:03.468Z,18.20
2017-07-09T01:24:32.317Z,17.87
2017-07-09T01:27:01.941Z,16.92
2017-07-09T01:29:31.594Z,16.87
2017-07-09T01:32:00.489Z,18.75
2017-07-09T01:34:29.404Z,18.25
2017-07-09T01:36:58.302Z,17.00
2017-07-09T01:39:27.205Z,16.92
2017-07-09T01:41:56.860Z,15.35
2017-07-09T01:44:25.749Z,16.10
2017-07-09T01:46:54.655Z,14.85
2017-07-09T01:49:23.548Z,15.77
2017-07-09T01:51:52.420Z,15.30
2017-07-09T01:54:21.325Z,14.15
2017-07-09T01:56:49.890Z,15.50
2017-07-09T01:59:18.786Z,14.02
2017-07-09T02:01:47.705Z,15.30
2017-07-09T02:04:16.572Z,14.85
2017-07-09T02:06:45.478Z,16.17
2017-07-09T02:09:14.381Z,14.50
2017-07-09T02:11:43.237Z,14.27
2017-07-09T02:14:12.149Z,15.10
2017-07-09T02:16:41.021Z,15.23
2017-07-09T02:19:09.926Z,15.02
2017-07-09T02:21:38.784Z,14.85
2017-07-09T02:24:07.685Z,15.30
2017-07-09T02:26:36.580Z,15.07
2017-07-09T02:29:05.469Z,14.60
2017-07-09T02:31:34.365Z,13.23
2017-07-09T02:34:03.261Z,14.93
2017-07-09T02:36:32.162Z,14.73
2017-07-09T02:39:01.070Z,15.80
2017-07-09T02:41:29.977Z,15.90
2017-07-09T02:43:58.875Z,15.43
2017-07-09T02:46:27.775Z,16.92
2017-07-09T02:48:56.629Z,16.20
2017-07-09T02:51:25.527Z,16.30
2017-07-09T02:53:54.436Z,16.08
2017-07-09T02:56:23.329Z,15.38
2017-07-09T02:58:52.199Z,15.63
2017-07-09T03:01:21.057Z,16.05
2017-07-09T03:03:49.997Z,16.80
2017-07-09T03:06:18.882Z,14.85
2017-07-09T03:08:47.777Z,14.75
2017-07-09T03:11:16.637Z,16.37
2017-07-09T03:13:45.507Z,15.57
2017-07-09T03:16:15.174Z,15.38
2017-07-09T03:18:44.077Z,14.48
2017-07-09T03:21:12.936Z,15.07
2017-07-09T03:23:41.557Z,14.93
2017-07-09T03:26:10.460Z,14.43
2017-07-09T03:28:40.090Z,15.57
2017-07-09T03:31:08.982Z,15.55
2017-07-09T03:33:37.872Z,13.80
2017-07-09T03:36:06.775Z,14.23
2017-07-09T03:38:35.642Z,14.38
2017-07-09T03:41:04.550Z,15.38
2017-07-09T03:43:33.424Z,13.15
2017-07-09T03:46:03.089Z,14.25
2017-07-09T03:48:32.009Z,13.50
2017-07-09T03:51:00.912Z,14.60
2017-07-09T03:53:30.577Z,13.80
2017-07-09T03:55:59.455Z,14.60
2017-07-09T03:58:28.349Z,13.68
2017-07-09T04:00:57.242Z,15.43
2017-07-09T04:03:26.142Z,15.48
2017-07-09T04:05:55.055Z,14.13
2017-07-09T04:08:23.908Z,14.20
2017-07-09T04:10:52.801Z,13.98
2017-07-09T04:13:21.707Z,14.35
2017-07-09T04:15:50.605Z,14.52
2017-07-09T04:18:19.508Z,15.63
2017-07-09T04:20:48.077Z,14.93
2017-07-09T04:23:16.977Z,13.23
2017-07-09T04:25:45.870Z,15.68
2017-07-09T04:28:14.775Z,15.82
2017-07-09T04:30:43.652Z,14.07
2017-07-09T04:33:12.511Z,16.27
2017-07-09T04:35:41.401Z,16.90
2017-07-09T04:38:10.304Z,16.42
2017-07-09T04:40:39.169Z,16.23
2017-07-09T04:43:08.834Z,14.65
2017-07-09T04:45:37.733Z,15.75
2017-07-09T04:48:06.636Z,15.05
2017-07-09T04:50:35.601Z,14.95
2017-07-09T04:53:04.494Z,15.00
2017-07-09T04:55:33.473Z,14.95
2017-07-09T04:58:02.375Z,15.85
2017-07-09T05:00:31.549Z,14.25
2017-07-09T05:03:00.455Z,15.07
2017-07-09T05:05:29.452Z,15.02
2017-07-09T05:07:58.361Z,15.15
2017-07-09T05:10:27.256Z,15.38
2017-07-09T05:12:56.167Z,15.43
2017-07-09T05:15:25.065Z,15.02
2017-07-09T05:17:53.961Z,14.60
2017-07-09T05:20:22.853Z,15.77
2017-07-09T05:22:52.522Z,13.73
2017-07-09T05:25:21.422Z,15.30
2017-07-09T05:27:51.769Z,16.00
2017-07-09T05:30:20.661Z,16.27
2017-07-09T05:32:49.564Z,15.35
2017-07-09T05:35:18.428Z,14.40
2017-07-09T05:37:47.318Z,14.30
2017-07-09T05:40:16.231Z,14.77
2017-07-09T05:42:45.128Z,15.50
2017-07-09T05:45:14.035Z,14.23
2017-07-09T05:47:43.692Z,14.23
2017-07-09T05:50:12.594Z,13.88
2017-07-09T05:52:41.462Z,14.65
2017-07-09T05:55:10.367Z,13.93
2017-07-09T05:57:39.284Z,14.75
2017-07-09T06:00:08.185Z,13.07
2017-07-09T06:02:37.112Z,13.52
2017-07-09T06:05:06.239Z,12.20
2017-07-09T06:07:35.108Z,13.45
2017-07-09T06:10:04.001Z,14.10
2017-07-09T06:12:32.914Z,13.62
2017-07-09T06:15:01.809Z,13.52
2017-07-09T06:17:30.714Z,13.73
2017-07-09T06:19:59.628Z,13.60
2017-07-09T06:22:29.304Z,13.90
2017-07-09T06:24:58.206Z,12.90
2017-07-09T06:27:27.110Z,13.40
2017-07-09T06:29:56.021Z,14.82
2017-07-09T06:32:25.676Z,13.98
2017-07-09T06:34:54.861Z,13.35
2017-07-09T06:40:17.580Z,12.52
2017-07-09T06:42:46.510Z,13.40
2017-07-09T06:45:16.008Z,12.30
2017-07-09T06:53:49.029Z,12.07
2017-07-09T06:56:18.690Z,11.23
2017-07-09T06:58:47.548Z,10.77
2017-07-09T07:01:16.464Z,10.10
2017-07-09T07:03:45.353Z,9.25
2017-07-09T07:06:14.248Z,9.90
2017-07-09T07:08:43.155Z,10.75
2017-07-09T07:11:12.052Z,10.30
2017-07-09T07:13:40.955Z,10.20
2017-07-09T07:16:09.848Z,9.65
2017-07-09T07:18:38.753Z,10.10
2017-07-09T07:21:07.619Z,9.48
2017-07-09T07:23:36.519Z,9.45
2017-07-09T07:26:05.425Z,9.98
2017-07-09T07:28:34.318Z,9.80
2017-07-09T07:31:03.177Z,10.02
2017-07-09T07:33:32.070Z,9.98
2017-07-09T07:36:00.966Z,9.63
2017-07-09T07:38:29.864Z,9.43
2017-07-09T07:40:58.751Z,8.95
2017-07-09T07:43:27.623Z,8.80
2017-07-09T07:45:56.528Z,9.07
2017-07-09T07:48:25.400Z,8.45
2017-07-09T07:50:54.277Z,7.90
2017-07-09T07:53:23.900Z,8.07
2017-07-09T07:55:52.757Z,7.90
2017-07-09T07:58:21.643Z,9.40
2017-07-09T08:00:50.529Z,8.43
2017-07-09T08:03:19.407Z,8.80
2017-07-09T08:05:48.284Z,7.35
2017-07-09T08:08:17.131Z,7.22
2017-07-09T08:10:46.021Z,8.38
2017-07-09T08:13:15.682Z,7.55
2017-07-09T08:15:44.537Z,7.25
2017-07-09T08:18:13.423Z,6.70
2017-07-09T08:20:42.302Z,7.75
2017-07-09T08:23:11.212Z,7.75
2017-07-09T08:25:40.093Z,8.27
2017-07-09T08:28:09.001Z,8.43
2017-07-09T08:30:37.891Z,8.57
2017-07-09T08:33:06.772Z,8.20
2017-07-09T08:35:35.653Z,8.02
2017-07-09T08:38:04.544Z,8.15
2017-07-09T08:40:34.216Z,9.55
2017-07-09T08:43:03.106Z,8.43
2017-07-09T08:45:31.994Z,8.80
2017-07-09T08:48:00.878Z,8.75
2017-07-09T08:50:29.773Z,9.23
2017-07-09T08:52:58.677Z,9.63
2017-07-09T08:55:27.575Z,9.30
2017-07-09T08:57:56.457Z,8.40
2017-07-09T09:00:25.350Z,8.55
2017-07-09T09:02:54.237Z,8.10
2017-07-09T09:05:23.137Z,9.10
2017-07-09T09:07:52.022Z,8.57
2017-07-09T09:10:21.002Z,8.45
2017-07-09T09:12:49.949Z,8.65
2017-07-09T09:15:18.907Z,8.40
2017-07-09T09:17:48.289Z,8.60
2017-07-09T09:20:17.649Z,8.90
2017-07-09T09:22:47.305Z,8.43
2017-07-09T09:25:16.013Z,9.40
2017-07-09T09:27:43.978Z,8.67
2017-07-09T09:30:13.529Z,9.00
2017-07-09T09:32:42.252Z,8.53
2017-07-09T09:35:10.884Z,8.30
2017-07-09T09:37:39.504Z,8.50
2017-07-09T09:40:08.125Z,9.30
2017-07-09T09:42:37.513Z,8.80
2017-07-09T09:45:06.134Z,7.90
2017-07-09T09:47:37.440Z,8.70
2017-07-09T09:50:06.070Z,9.70
2017-07-09T09:52:34.680Z,8.57
2017-07-09T09:55:03.309Z,8.80
2017-07-09T09:57:31.957Z,8.03
2017-07-09T10:00:00.604Z,9.00
2017-07-09T10:02:29.228Z,8.77
2017-07-09T10:04:57.840Z,7.50
2017-07-09T10:07:26.464Z,9.27
2017-07-09T10:09:55.077Z,8.57
2017-07-09T10:12:23.714Z,6.90
2017-07-09T10:14:53.080Z,7.30
2017-07-09T10:17:21.702Z,7.63
2017-07-09T10:19:51.082Z,8.30
2017-07-09T10:22:19.706Z,7.30
2017-07-09T10:24:48.339Z,8.30
2017-07-09T10:27:16.973Z,8.77
2017-07-09T10:29:45.607Z,8.50
2017-07-09T10:32:14.238Z,8.57
2017-07-09T10:34:42.882Z,8.37
2017-07-09T10:37:11.514Z,8.50
2017-07-09T10:39:40.146Z,7.43
2017-07-09T10:42:08.788Z,8.20
2017-07-09T10:44:36.732Z,7.63
2017-07-09T10:47:05.374Z,7.57
2017-07-09T10:49:33.997Z,8.73
2017-07-09T10:52:02.268Z,7.77
2017-07-09T10:54:30.899Z,8.00
2017-07-09T10:56:59.817Z,7.30
2017-07-09T10:59:28.131Z,7.90
2017-07-09T11:01:56.753Z,8.60
2017-07-09T11:04:26.202Z,8.97
2017-07-09T11:06:55.141Z,7.80
2017-07-09T11:09:23.757Z,8.23
2017-07-09T11:11:52.365Z,7.70
2017-07-09T11:14:20.996Z,7.90
2017-07-09T11:16:49.284Z,8.30
2017-07-09T11:19:17.876Z,8.60
2017-07-09T11:21:47.405Z,8.57
2017-07-09T11:24:16.768Z,8.20
2017-07-09T11:26:45.385Z,7.60
2017-07-09T11:29:14.019Z,8.00
2017-07-09T11:31:42.645Z,7.43
2017-07-09T11:34:11.261Z,7.87
2017-07-09T11:36:40.727Z,7.43
2017-07-09T11:39:09.340Z,8.20
2017-07-09T11:41:37.971Z,7.17
2017-07-09T11:44:07.362Z,7.30
2017-07-09T11:46:36.013Z,8.03
2017-07-09T11:49:04.725Z,7.70
2017-07-09T11:51:33.470Z,8.00
2017-07-09T11:54:02.108Z,8.40
2017-07-09T11:56:38.412Z,7.57
2017-07-09T12:02:13.040Z,7.07
2017-07-09T12:04:41.674Z,7.60
2017-07-09T12:07:10.307Z,7.20
2017-07-09T12:09:38.948Z,8.70
2017-07-09T12:12:07.583Z,7.97
2017-07-09T12:14:36.209Z,8.00
2017-07-09T12:17:04.803Z,8.10
2017-07-09T12:19:33.421Z,7.87
2017-07-09T12:22:01.693Z,7.20
2017-07-09T12:24:30.322Z,8.10
2017-07-09T12:26:58.259Z,7.63
2017-07-09T12:29:26.891Z,7.30
2017-07-09T12:31:55.512Z,8.10
2017-07-09T12:34:24.129Z,6.20
2017-07-09T12:36:53.529Z,7.20
2017-07-09T12:39:22.913Z,7.60
2017-07-09T12:41:51.543Z,7.10
2017-07-09T12:44:20.160Z,7.60
2017-07-09T12:46:48.783Z,7.03
2017-07-09T12:49:17.421Z,7.00
2017-07-09T12:51:46.053Z,8.30
2017-07-09T12:54:14.681Z,7.77
2017-07-09T12:56:43.316Z,6.90
2017-07-09T12:59:11.933Z,6.53
2017-07-09T13:01:40.562Z,6.60
2017-07-09T13:04:09.203Z,6.90
2017-07-09T13:06:37.817Z,6.50
2017-07-09T13:09:05.922Z,6.50
2017-07-09T13:11:34.356Z,7.57
2017-07-09T13:14:02.970Z,6.70
2017-07-09T13:16:31.597Z,6.87
2017-07-09T13:19:00.976Z,7.13
2017-07-09T13:21:29.606Z,6.57
2017-07-09T13:23:58.239Z,6.83
2017-07-09T13:26:26.853Z,6.77
2017-07-09T13:28:56.243Z,6.57
2017-07-09T13:31:24.869Z,6.00
2017-07-09T13:33:53.490Z,6.70
2017-07-09T13:36:22.934Z,6.80
2017-07-09T13:38:52.326Z,6.80
2017-07-09T13:41:20.980Z,6.20
2017-07-09T13:43:49.597Z,6.10
2017-07-09T13:46:18.225Z,5.80
2017-07-09T13:48:47.140Z,6.40
2017-07-09T13:51:15.764Z,6.53
2017-07-09T13:53:44.390Z,6.17
2017-07-09T13:56:13.017Z,7.97
2017-07-09T13:58:41.647Z,5.87
2017-07-09T14:01:10.274Z,6.87
2017-07-09T14:03:39.486Z,6.47
2017-07-09T14:06:08.915Z,6.07
2017-07-09T14:08:38.315Z,7.90
2017-07-09T14:11:07.710Z,5.93
2017-07-09T14:13:36.311Z,6.53
2017-07-09T14:16:05.692Z,7.30
2017-07-09T14:18:34.335Z,5.60
2017-07-09T14:21:02.939Z,6.03
2017-07-09T14:23:31.524Z,6.60
2017-07-09T14:25:59.794Z,6.97
2017-07-09T14:28:28.085Z,6.70
2017-07-09T14:30:56.788Z,7.43
2017-07-09T14:33:25.100Z,7.00
2017-07-09T14:35:53.434Z,7.23
2017-07-09T14:38:22.065Z,7.77
2017-07-09T14:40:50.720Z,6.10
2017-07-09T14:43:19.351Z,6.10
2017-07-09T14:45:47.293Z,6.30
2017-07-09T14:48:16.958Z,6.27
2017-07-09T14:50:45.289Z,6.87
2017-07-09T14:53:14.685Z,6.60
2017-07-09T14:55:45.049Z,5.67
2017-07-09T14:58:13.698Z,6.43
2017-07-09T15:00:42.329Z,6.30
2017-07-09T15:03:10.952Z,6.20
2017-07-09T15:05:39.260Z,5.73
2017-07-09T15:08:07.875Z,6.13
2017-07-09T15:10:36.502Z,6.87
2017-07-09T15:13:05.130Z,6.70
2017-07-09T15:15:33.759Z,7.03
2017-07-09T15:18:02.369Z,6.47
2017-07-09T15:20:31.769Z,5.60
2017-07-09T15:23:01.157Z,6.70
2017-07-09T15:25:29.772Z,6.03
2017-07-09T15:28:00.194Z,6.17
2017-07-09T15:30:28.490Z,6.13
2017-07-09T15:32:57.299Z,7.27
2017-07-09T15:35:25.947Z,5.80
2017-07-09T15:37:54.578Z,6.07
2017-07-09T15:40:23.210Z,6.70
2017-07-09T15:42:52.602Z,6.60
2017-07-09T15:45:21.236Z,6.23
2017-07-09T15:47:49.879Z,6.47
2017-07-09T15:50:18.513Z,6.83
2017-07-09T15:52:47.137Z,6.33
2017-07-09T15:55:15.769Z,5.83
2017-07-09T15:57:44.393Z,6.03
2017-07-09T16:00:13.024Z,6.30
2017-07-09T16:02:42.426Z,5.90
2017-07-09T16:05:11.832Z,7.17
2017-07-09T16:07:41.241Z,7.13
2017-07-09T16:10:09.887Z,6.53
2017-07-09T16:12:38.522Z,7.07
2017-07-09T16:15:07.142Z,6.40
2017-07-09T16:17:35.779Z,6.80
2017-07-09T16:20:04.479Z,6.90
2017-07-09T16:22:33.102Z,7.50
2017-07-09T16:25:01.716Z,7.63
2017-07-09T16:27:30.354Z,7.27
2017-07-09T16:29:58.985Z,6.60
2017-07-09T16:32:27.626Z,6.50
2017-07-09T16:34:56.256Z,6.97
2017-07-09T16:37:25.458Z,6.63
2017-07-09T16:39:54.080Z,6.60
2017-07-09T16:42:22.597Z,6.87
2017-07-09T16:44:50.879Z,6.53
2017-07-09T16:47:19.522Z,7.20
2017-07-09T16:49:48.169Z,6.97
2017-07-09T16:52:17.052Z,6.87
2017-07-09T16:54:45.670Z,7.30
2017-07-09T16:57:14.305Z,6.83
2017-07-09T16:59:42.924Z,6.57
2017-07-09T17:02:11.553Z,6.90
2017-07-09T17:04:40.180Z,6.90
2017-07-09T17:07:08.773Z,6.67
2017-07-09T17:09:37.394Z,6.87
2017-07-09T17:12:06.274Z,7.30
2017-07-09T17:14:34.934Z,6.60
2017-07-09T17:17:04.420Z,7.47
2017-07-09T17:19:33.038Z,7.00
2017-07-09T17:22:01.652Z,6.60
2017-07-09T17:24:30.274Z,7.07
2017-07-09T17:26:58.911Z,7.30
2017-07-09T17:29:27.533Z,6.13
2017-07-09T17:31:56.143Z,6.83
2017-07-09T17:34:24.957Z,7.60
2017-07-09T17:36:54.014Z,7.10
2017-07-09T17:39:22.637Z,7.53
2017-07-09T17:41:51.267Z,6.90
2017-07-09T17:44:19.897Z,7.27
2017-07-09T17:46:48.517Z,7.30
2017-07-09T17:49:17.114Z,7.03
2017-07-09T17:51:45.845Z,7.17
2017-07-09T17:54:13.768Z,6.90
2017-07-09T17:56:48.558Z,7.60
2017-07-09T17:59:17.381Z,7.00
2017-07-09T18:01:46.184Z,8.33
2017-07-09T18:04:14.987Z,7.43
2017-07-09T18:06:43.718Z,8.03
2017-07-09T18:09:12.516Z,8.80
2017-07-09T18:11:41.269Z,9.77
2017-07-09T18:14:10.197Z,9.27
2017-07-09T18:16:38.973Z,8.50
2017-07-09T18:19:07.865Z,9.13
2017-07-09T18:21:36.641Z,8.40
2017-07-09T18:24:05.521Z,8.67
2017-07-09T18:26:34.349Z,7.93
2017-07-09T18:29:08.374Z,6.97
2017-07-09T18:31:37.321Z,6.37
2017-07-09T18:34:06.383Z,5.57
2017-07-09T18:36:35.123Z,6.37
2017-07-09T18:39:03.596Z,6.10
2017-07-09T18:41:32.375Z,6.53
2017-07-09T18:44:01.698Z,5.80
2017-07-09T18:46:30.310Z,7.93
2017-07-09T18:48:58.585Z,7.70
2017-07-09T18:51:26.853Z,7.30
2017-07-09T18:53:55.555Z,7.40
2017-07-09T18:56:24.179Z,6.43
2017-07-09T18:58:52.820Z,7.13
2017-07-09T19:01:22.213Z,7.33
2017-07-09T19:03:50.825Z,6.17
2017-07-09T19:06:19.451Z,6.00
2017-07-09T19:08:52.013Z,6.03
2017-07-09T19:11:20.658Z,5.60
2017-07-09T19:13:49.294Z,6.13
2017-07-09T19:16:17.917Z,5.50
2017-07-09T19:18:46.722Z,6.87
2017-07-09T19:21:15.046Z,7.37
2017-07-09T19:23:44.485Z,6.67
2017-07-09T19:26:12.764Z,7.17
2017-07-09T19:28:42.167Z,7.10
2017-07-09T19:31:10.810Z,7.13
2017-07-09T19:33:40.047Z,7.30
2017-07-09T19:36:09.761Z,7.73
2017-07-09T19:38:39.148Z,7.87
2017-07-09T19:41:07.769Z,8.73
2017-07-09T19:43:36.395Z,8.77
2017-07-09T19:46:05.039Z,7.90
2017-07-09T19:48:33.751Z,7.80
2017-07-09T19:51:07.830Z,7.93
2017-07-09T19:53:37.242Z,7.80
2017-07-09T19:56:06.644Z,8.10
2017-07-09T19:58:39.125Z,8.40
2017-07-09T20:01:17.476Z,8.77
2017-07-09T20:03:46.125Z,10.05
2017-07-09T20:06:15.538Z,8.93
2017-07-09T20:08:44.765Z,9.63
2017-07-09T20:11:13.436Z,10.20
2017-07-09T20:13:42.097Z,10.00
2017-07-09T20:16:10.622Z,10.43
2017-07-09T20:18:39.345Z,9.02
2017-07-09T20:21:07.799Z,10.23
2017-07-09T20:23:36.428Z,10.43
2017-07-09T20:26:05.017Z,8.50
2017-07-09T20:28:34.473Z,9.83
2017-07-09T20:31:03.878Z,9.20
2017-07-09T20:33:32.529Z,9.17
2017-07-09T20:36:01.167Z,10.10
2017-07-09T20:38:30.069Z,10.75
2017-07-09T20:40:58.707Z,10.37
2017-07-09T20:43:27.350Z,10.10
2017-07-09T20:45:56.783Z,10.47
2017-07-09T20:48:25.414Z,9.07
2017-07-09T20:50:54.041Z,9.63
2017-07-09T20:53:22.971Z,9.90
2017-07-09T20:55:51.900Z,10.15
2017-07-09T20:58:20.822Z,10.13
2017-07-09T21:00:49.730Z,10.05
2017-07-09T21:03:19.433Z,10.00
2017-07-09T21:05:48.329Z,11.25
2017-07-09T21:08:16.966Z,11.20
2017-07-09T21:10:45.887Z,9.75
2017-07-09T21:13:16.007Z,10.88
2017-07-09T21:15:44.912Z,10.07
2017-07-09T21:18:13.827Z,10.25
2017-07-09T21:20:43.805Z,11.50
2017-07-09T21:23:12.716Z,11.52
2017-07-09T21:25:41.608Z,10.18
2017-07-09T21:28:10.503Z,9.85
2017-07-09T21:30:39.402Z,10.23
2017-07-09T21:33:09.132Z,10.55
2017-07-09T21:35:38.007Z,10.15
2017-07-09T21:38:07.682Z,9.57
2017-07-09T21:40:36.594Z,10.80
2017-07-09T21:43:05.503Z,9.80
2017-07-09T21:45:35.196Z,11.68
2017-07-09T21:48:04.114Z,10.25
2017-07-09T21:50:33.022Z,12.02
2017-07-09T21:53:01.911Z,11.40
2017-07-09T21:55:30.816Z,11.38
2017-07-09T21:57:59.796Z,10.77
2017-07-09T22:00:28.685Z,9.82
2017-07-09T22:02:57.543Z,9.50
2017-07-09T22:05:26.450Z,10.02
2017-07-09T22:07:56.096Z,10.05
2017-07-09T22:10:25.003Z,10.45
2017-07-09T22:12:53.906Z,9.60
2017-07-09T22:15:22.816Z,10.45
2017-07-09T22:17:51.716Z,10.40
2017-07-09T22:20:21.346Z,9.98
2017-07-09T22:22:49.562Z,10.75
2017-07-09T22:25:18.465Z,10.32
2017-07-09T22:27:47.367Z,11.15
2017-07-09T22:30:16.259Z,11.05
2017-07-09T22:32:45.153Z,10.50
2017-07-09T22:35:14.017Z,10.23
2017-07-09T22:37:42.922Z,10.68
2017-07-09T22:40:11.821Z,10.80
2017-07-09T22:42:40.724Z,10.32
2017-07-09T22:45:09.642Z,10.00
2017-07-09T22:47:39.309Z,10.55
2017-07-09T22:50:08.207Z,10.15
2017-07-09T22:52:37.107Z,11.45
2017-07-09T22:55:06.009Z,11.00
2017-07-09T22:57:34.896Z,11.65
2017-07-09T23:00:03.792Z,10.95
2017-07-09T23:02:32.667Z,11.23
2017-07-09T23:05:01.568Z,10.48
2017-07-09T23:07:30.471Z,9.98
2017-07-09T23:09:59.343Z,10.20
2017-07-09T23:12:28.255Z,11.05
2017-07-09T23:14:57.146Z,11.45
2017-07-09T23:17:26.812Z,10.98
2017-07-09T23:19:55.726Z,11.70
2017-07-09T23:22:24.620Z,10.88
2017-07-09T23:24:53.525Z,11.30
2017-07-09T23:27:22.428Z,10.98
2017-07-09T23:29:51.345Z,11.93
2017-07-09T23:32:20.248Z,11.55
2017-07-09T23:34:49.119Z,12.52
2017-07-09T23:37:18.017Z,12.70
2017-07-09T23:39:46.881Z,12.02
2017-07-09T23:42:15.785Z,11.98
2017-07-09T23:44:44.648Z,13.38
2017-07-09T23:47:13.544Z,11.68
2017-07-09T23:49:42.454Z,11.73
2017-07-09T23:52:11.352Z,12.48
2017-07-09T23:54:40.253Z,13.60
2017-07-09T23:57:09.165Z,12.23
2017-07-09T23:59:38.069Z,12.30
